Ames, IA (50010)

10:38 AM CDT on March 30, 2017 (GMT -0500)
Ames 15th Street | | Change Station

Elev 915 ft 42.04 °N, 93.62 °W | Updated 4 seconds ago

Overcast
Overcast
41.7 °F
Feels Like 42 °F
N
2.9
Wind Variable Wind from NNE
Gusts 10.0 mph

Today
High -- | Low -- °F
--% Chance of Precip.
Yesterday
High -- | Low -- °F
Precip. -- in
Pressure 29.70 in
Visibility 3.0 miles
Clouds Overcast 600 ft
Windchill 42 °F
Dew Point 40 °F
Humidity 94%
Rainfall 0.00 in
Snow Depth Not available.
7:00 AM 7:38 PM
Waxing Crescent, 9% visible
SPECI KAMW 301516Z AUTO 04014G19KT 3SM BR OVC006 05/05 A2970 RMK AO2 T00500050
Pressure 29.70 in
Visibility 3.0 miles
Clouds Overcast 600 ft
Windchill 42 °F
Dew Point 40 °F
Humidity 94%
Rainfall 0.00 in
Snow Depth Not available.
7:00 AM 7:38 PM
Waxing Crescent, 9% visible
SPECI KAMW 301516Z AUTO 04014G19KT 3SM BR OVC006 05/05 A2970 RMK AO2 T00500050

Get Severe Weather Alerts

Thanks for signing up!

Be on the lookout for a verification email in your inbox.

You'll start receiving the daily forecast at 8 AM.

×

10-Day Weather Forecast

Almanac

Astronomy

Mar. 30, 2017 Rise Set
Actual Time
Civil Twilight
Nautical Twilight
Astronomical Twilight
Moon
Length of Visible Light
Length of Day
Tomorrow will be .
, % of the Moon is Illuminated

Today's Extremes

State Highs State Lows

Community

WunderPhotos

Upload Photos

1,962,540 photos uploaded!

WunderBlog® & News

Nearby

Air Quality

  Air Quality AQ Index Pollutant
Not available.

Snow Depth

Station Depth Elevation

Earthquake Activity

City Distance Mag. Time & Date
Minimum magnitude displayed is 2.5.

Earthquake Activity

City Distance Mag. Time & Date
Minimum magnitude displayed is 2.5.

Coastal Water Temperatures

Place Temperature

Stations

Nearby Weather Stations

Station Location Temp. Windchill Dew Point Humidity Wind Precip. Elev Updated Type
                   

Watches & Warnings

There are currently no watches in effect.